Clima Ilopango International Airport
Currently
Currently
Currently
METAR
MSSS 222350Z 17008KT 9999 FEW013 23/23 Q1014 A2994 MSSS 222250Z 17005KT 9999 FEW013 23/22 Q1013 A2992 MSSS 222150Z 18006KT 9999 SCT020 FEW040CB 23/23 Q1013 A2992 RMK CB NE SW TAF MSSS 222125Z 2300/2324 34006KT 9999 SCT023 FEW037CB TX28/2318Z TN21/2312Z TEMPO 2303/2306 36014KT 5000 TSRA BKN023 SCT033CB BKN043 FM231200 36005KT 9999 SCT023 FEW037CB SCT060 FM231800 17008KT 8000 TSRA BKN023 SCT033CB
TAF
MSSS 222125Z 2300/2324 34006KT 9999 SCT023 FEW037CB TX28/2318Z TN21/2312Z TEMPO 2303/2306 36014KT 5000 TSRA BKN023 SCT033CB BKN043 FM231200 36005KT 9999 SCT023 FEW037CB SCT060 FM231800 17008KT 8000 TSRA BKN023 SCT033CB

Cámaras Aeroclub

Norte

Este

Sur

Oeste

AIS/AIP El Salvador

Autoridad de Aviación Civil (AAC) El Salvador

VER DOCUMENTO